Flight Track Log - Related Links

Times and Time Zones

All times are in EDT time to prevent confusion due to time zone crossing. See the TCF6008 flight status page for this flight to view local times or setup timezone preferences in your user account.


Time Position Orientation Groundspeed Altitude Reporting Facility
EDT Latitude Longitude Course Direction KTS MPH feet Rate Location/Type
Wed 08:48:18 PM 42.9500 -87.9000 46° Northeast 158 182 1,300  Level Milwaukee TRACON
Wed 08:49:30 PM 42.9878 -87.8461 46° Northeast 192 221 3,800 1,970 Climbing Chicago Center
Wed 08:50:32 PM 42.9569 -87.7672 118° Southeast 235 270 5,700 2,195 Climbing Chicago Center
Wed 08:51:33 PM 42.9625 -87.6553 86° East 290 334 8,300 2,439 Climbing Chicago Center
Wed 08:52:35 PM 42.9675 -87.5367 87° East 309 356 10,700 2,032 Climbing Chicago Center
Wed 08:53:37 PM 42.9733 -87.3964 87° East 361 415 12,500 1,951 Climbing Chicago Center
Wed 08:54:38 PM 42.9858 -87.2397 84° East 386 444 14,700 2,195 Climbing Chicago Center
Wed 08:55:40 PM 43.0000 -87.0844 83° East 405 466 17,000 2,000 Climbing Chicago Center
Wed 08:56:41 PM 43.0111 -86.9261 84° East 416 479 18,800 1,756 Climbing Chicago Center
Wed 08:57:43 PM 43.0236 -86.7578 84° East 437 503 20,600 1,839 Climbing Chicago Center
Wed 08:58:45 PM 43.0356 -86.5883 84° East 449 517 22,600 1,756 Climbing Chicago Center
Wed 08:59:46 PM 43.0489 -86.4150 84° East 456 525 24,200 1,536 Climbing Chicago Center
Wed 09:00:50 PM 43.0639 -86.2019 84° East 468 539 25,800 1,296 Climbing Chicago Center
Wed 09:01:51 PM 43.0781 -86.0128 84° East 481 554 26,900 1,073 Climbing Chicago Center
Wed 09:02:53 PM 43.0897 -85.8147 85° East 494 568 28,000 1,065 Climbing Chicago Center
Wed 09:03:55 PM 43.1031 -85.6250 84° East 500 575 29,100 1,073 Climbing Chicago Center
Wed 09:04:56 PM 43.1150 -85.4361 85° East 499 574 30,200 1,073 Climbing Chicago Center
Wed 09:05:58 PM 43.1278 -85.2481 85° East 496 571 31,300 1,052 Climbing Chicago Center
Wed 09:06:33 PM 43.1336 -85.1242 86° East 496 571 31,900 1,074 Climbing Cleveland Center
Wed 09:07:33 PM 43.1450 -84.9372 85° East 496 571 33,000 550 Climbing Cleveland Center
Wed 09:08:33 PM 43.1564 -84.7444 85° East 496 571 33,000  Level Cleveland Center
Wed 09:09:33 PM 43.1675 -84.5486 85° East 501 577 33,000  Level Cleveland Center
Wed 09:10:33 PM 43.1800 -84.3614 85° East 501 577 33,000 300 Level Cleveland Center
Wed 09:11:33 PM 43.1856 -84.1881 87° East 501 577 33,600 700 Climbing Cleveland Center
Wed 09:12:33 PM 43.1956 -83.9950 86° East 501 577 34,400 700 Climbing Cleveland Center
Wed 09:13:33 PM 43.2053 -83.8017 86° East 501 577 35,000 300 Climbing Cleveland Center
Wed 09:14:33 PM 43.2144 -83.6114 86° East 501 577 35,000  Level Cleveland Center
Wed 09:15:33 PM 43.2236 -83.4208 86° East 496 571 35,000  Level Cleveland Center
Wed 09:16:33 PM 43.2322 -83.2303 86° East 496 571 35,000  Level Cleveland Center
Wed 09:17:33 PM 43.2406 -83.0397 86° East 496 571 35,000  Level Cleveland Center
Wed 09:18:33 PM 43.2486 -82.8547 87° East 490 564 35,000  Level Cleveland Center
Wed 09:19:33 PM 43.2586 -82.6500 86° East 490 564 35,000  Level Cleveland Center
Wed 09:19:54 PM 43.2333 -82.5667 113° Southeast 500 575 35,000  Level Toronto Center
Wed 09:20:54 PM 43.2000 -82.3833 104° East 500 575 35,000  Level Toronto Center
Wed 09:21:54 PM 43.1667 -82.2000 104° East 500 575 35,000  Level Toronto Center
Wed 09:22:54 PM 43.1500 -82.0167 97° East 500 575 35,000  Level Toronto Center
Wed 09:23:54 PM 43.1333 -81.8333 97° East 500 575 35,000  Level Toronto Center
Wed 09:24:54 PM 43.1000 -81.6500 104° East 500 575 35,000  Level Toronto Center
Wed 09:25:54 PM 43.0667 -81.4667 104° East 490 564 35,000  Level Toronto Center
Wed 09:26:54 PM 43.0333 -81.2833 104° East 490 564 35,000  Level Toronto Center
Wed 09:27:54 PM 43.0167 -81.1000 97° East 500 575 35,000 100 Level Toronto Center
Wed 09:28:54 PM 43.0000 -80.8833 96° East 500 575 35,200 400 Climbing Toronto Center
Wed 09:29:54 PM 42.9833 -80.7000 97° East 490 564 35,800 650 Climbing Toronto Center
Wed 09:30:54 PM 42.9667 -80.5167 97° East 490 564 36,500 600 Climbing Toronto Center
Wed 09:31:54 PM 42.9333 -80.3333 104° East 480 552 37,000 250 Climbing Toronto Center
Wed 09:32:54 PM 42.9333 -80.1500 90° East 490 564 37,000  Level Toronto Center
Wed 09:33:54 PM 42.9167 -79.9667 97° East 490 564 37,000  Level Toronto Center
Wed 09:34:54 PM 42.9167 -79.8000 90° East 490 564 37,000  Level Toronto Center
Wed 09:35:54 PM 42.9167 -79.6167 90° East 500 575 37,000  Level Toronto Center
Wed 09:36:54 PM 42.9167 -79.4333 90° East 500 575 37,000  Level Toronto Center
Wed 09:37:54 PM 42.9167 -79.2167 90° East 500 575 37,000  Level Toronto Center
Wed 09:38:54 PM 42.9167 -79.0167 90° East 500 575 37,000  Level Toronto Center
Wed 09:39:54 PM 42.9167 -78.8333 90° East 500 575 37,000  Level Toronto Center
Wed 09:40:21 PM 42.9300 -78.8025 59° Northeast 496 571 37,000  Level Cleveland Center
Wed 09:41:21 PM 42.9269 -78.6125 91° East 496 571 37,000  Level Cleveland Center
Wed 09:42:21 PM 42.9092 -78.4317 98° East 496 571 37,000  Level Cleveland Center
Wed 09:43:21 PM 42.8889 -78.2483 99° East 496 571 37,000  Level Cleveland Center
Wed 09:44:21 PM 42.8703 -78.0619 98° East 496 571 37,000  Level Cleveland Center
Wed 09:45:21 PM 42.8494 -77.8758 99° East 496 571 37,000  Level Cleveland Center
Wed 09:46:21 PM 42.8325 -77.6925 97° East 496 571 37,000  Level Cleveland Center
Wed 09:47:21 PM 42.8050 -77.5125 102° East 496 571 37,000  Level Cleveland Center
Wed 09:48:54 PM 42.7500 -77.1833 103° East 490 564 37,000  Level Toronto Center
Wed 09:49:23 PM 42.7531 -77.1489 83° East 492 566 37,000  Level Boston Center
Wed 09:50:23 PM 42.7272 -76.9631 101° East 492 566 37,000  Level Boston Center
Wed 09:51:24 PM 42.6975 -76.7631 101° East 492 566 37,000  Level Boston Center
Wed 09:52:24 PM 42.6708 -76.5833 101° East 487 560 37,000  Level Boston Center
Wed 09:53:22 PM 42.6442 -76.3978 101° East 492 566 37,000 -51 Level Boston Center
Wed 09:54:22 PM 42.6192 -76.2128 100° East 492 566 36,900 -496 Descending Boston Center
Wed 09:55:23 PM 42.5947 -76.0675 103° East 492 566 36,000 -1,091 Descending Boston Center
Wed 09:56:23 PM 42.5600 -75.8456 102° East 492 566 34,700 -1,240 Descending Boston Center
Wed 09:57:24 PM 42.5319 -75.6636 102° East 492 566 33,500 -1,289 Descending Boston Center
Wed 09:58:24 PM 42.5036 -75.4789 102° East 492 566 32,100 -1,190 Descending Boston Center
Wed 09:59:25 PM 42.4803 -75.3342 102° East 492 566 31,100 -1,289 Descending Boston Center
Wed 10:00:25 PM 42.4267 -75.1347 110° East 497 572 29,500 -1,487 Descending Boston Center
Wed 10:01:22 PM 42.3658 -74.9692 116° Southeast 497 572 28,200 -1,322 Descending Boston Center
Wed 10:02:23 PM 42.3050 -74.8039 116° Southeast 492 566 26,900 -1,850 Descending Boston Center
Wed 10:03:22 PM 42.2456 -74.6444 117° Southeast 482 555 24,500 -2,400 Descending Boston Center
Wed 10:04:23 PM 42.1881 -74.4883 116° Southeast 477 549 22,100 -2,557 Descending Boston Center
Wed 10:05:24 PM 42.1264 -74.3239 117° Southeast 455 524 19,300 -1,420 Descending Boston Center
Wed 10:06:34 PM 42.0519 -74.1567 121° Southeast 436 502 19,000 -136 Descending Boston Center
Wed 10:07:36 PM 41.9850 -74.0264 125° Southeast 430 495 19,000  Level Boston Center
Wed 10:08:36 PM 41.9219 -73.9022 124° Southeast 437 503 19,000 -559 Level Boston Center
Wed 10:09:34 PM 41.8125 -73.8244 152° Southeast 413 475 17,900 -1,525 Descending Boston Center
Wed 10:10:34 PM 41.7189 -73.8169 177° South 377 434 16,000 -2,092 Descending Boston Center
Wed 10:11:23 PM 41.6167 -73.8167 180° South 360 414 14,100 -2,155 Descending New York TRACON
Wed 10:12:17 PM 41.5333 -73.8000 171° South 353 406 12,300 -1,889 Descending New York TRACON
Wed 10:13:11 PM 41.4500 -73.8000 180° South 316 364 10,700 -1,533 Descending New York TRACON
Wed 10:15:17 PM 41.2833 -73.7500 167° South 324 373 7,700 -1,387 Descending New York TRACON
Wed 10:16:17 PM 41.2167 -73.6833 143° Southeast 310 357 6,400 -1,368 Descending New York TRACON
Wed 10:17:11 PM 41.1500 -73.6667 169° South 273 314 5,100 -1,143 Descending New York TRACON
Wed 10:18:23 PM 41.0667 -73.7000 197° South 273 314 4,000 -550 Descending New York TRACON
Wed 10:19:11 PM 41.0000 -73.7167 191° South 265 305 4,000 -167 Level New York TRACON
Wed 10:20:11 PM 40.9333 -73.7500 201° Southwest 240 276 3,700 -800 Descending New York TRACON
Wed 10:21:11 PM 40.8833 -73.7833 207° Southwest 205 236 2,400 -1,143 Descending New York TRACON
Wed 10:22:17 PM 40.8500 -73.8167 217° Southwest 165 190 1,300 -857 Descending New York TRACON
Wed 10:23:17 PM 40.8167 -73.8500 217° Southwest 135 155 600 -700 Descending New York TRACON
Wed 10:25:00 PM 40.7772 -73.8726 180° South  Level Estimated

Login

Don't have an account? Register now (free) for customized features, flight alerts, and more!